BRYA4: Kings River Nr Berryville, AR

                                SHEF ID:       BRYA4     Kings River near Berryville, AR
STATION TYPE: Stream Gauge

PRECIP STAGE RIV-FLOW BAT-LOAD
in ft cfs volt
Ccp-Rev Ccp-Rev Ccp-Rev Ccp-Rev
(America/Chicago)
05/07 00:00 0.00 4.38 419 12.17
05/07 01:00 0.00 4.38 419 12.17
05/07 02:00 0.00 4.39 424 12.17
05/07 03:00 0.00 4.40 429 12.14
05/07 04:00 0.00 4.39 424 12.13
05/07 05:00 0.00 4.37 414 12.11
05/07 06:00 0.00 4.36 409 12.09
05/07 07:00 0.00 4.33 394 12.06
05/07 08:00 0.00 4.35 404 12.10
05/07 09:00 0.00 4.36 409 12.41
05/07 10:00 0.00 4.38 419 12.78
05/07 11:00 0.00 4.35 404 13.07
05/07 12:00 0.00 4.36 409 13.19
05/07 13:00 0.00 4.35 404 13.57
05/07 14:00 0.00 4.35 404 13.17
05/07 15:00 0.00 4.33 394 13.09
05/07 16:00 0.00 4.29 375 13.05
05/07 17:00 0.00 4.32 389 13.05
05/07 18:00 0.00 4.31 385 13.05
05/07 19:00 0.00 4.28 370 13.01
05/07 20:00 0.00 4.26 361 12.86
05/07 21:00 0.00 4.24 351 12.53
05/07 22:00 0.00 4.25 356 12.27
05/07 23:00 0.00 4.23 347 12.21
Data processed at Fri 08May2026 04:22 GMT

NOTICE: If you are parsing this page

Please convert to using our Data API. Starting early 2026 we will be migrating to: https://water.usace.army.mil with modern pages rendered in JavaScript. When this migration completes you will no longer be able to scrape this page! CWMSDataAPI (CDA)

Timeseries IDs (TSIDs)

TSIDs used from left to right in the data table
BERR.Precip-Inc.Total.1Hour.1Hour.Ccp-Rev
BERR.Stage.Inst.1Hour.0.Ccp-Rev
BERR.Flow.Inst.1Hour.0.Ccp-Rev
BERR.Volt-Battery Load.Inst.1Hour.0.Ccp-Rev

                            

All information presented herein is the property of the government of the United States of America and may be revised or deleted at any time without prior notice. Dissemination of this information without the expressed written consent of the Public Affairs Office, Tulsa District U.S. Army Corps of Engineers is strictly prohibited. These data are gathered electronically and, as presented, have NOT undergone any form of quality control. These data are NOT guaranteed to be valid or correct.